TimeCST,TemperatureF,Dew PointF,Humidity,Sea Level PressureIn,VisibilityMPH,Wind Direction,Wind SpeedMPH,Gust SpeedMPH,PrecipitationIn,Events,Conditions,WindDirDegrees,DateUTC
12:55 AM,26.1,18.0,71,30.12,10.0,SSW,3.5,-,N/A,,Clear,200,2011-11-11 06:55:00
1:55 AM,23.0,18.0,81,30.11,10.0,South,4.6,-,N/A,,Clear,180,2011-11-11 07:55:00
2:55 AM,26.1,17.1,69,30.09,10.0,South,3.5,-,N/A,,Clear,190,2011-11-11 08:55:00
3:55 AM,25.0,18.0,75,30.06,10.0,South,6.9,-,N/A,,Clear,170,2011-11-11 09:55:00
4:55 AM,24.8,17.6,74,30.00,10.0,South,6.9,-,N/A,,Clear,170,2011-11-11 10:55:00
5:55 AM,26.1,19.9,78,30.01,10.0,South,6.9,-,N/A,,Clear,170,2011-11-11 11:55:00
6:55 AM,28.9,21.0,72,29.98,10.0,SSE,10.4,-,N/A,,Clear,150,2011-11-11 12:55:00
7:55 AM,32.0,21.9,66,29.95,10.0,SSE,11.5,-,N/A,,Clear,160,2011-11-11 13:55:00
8:55 AM,39.0,25.0,57,29.92,10.0,SSE,12.7,-,N/A,,Clear,160,2011-11-11 14:55:00
9:55 AM,45.0,28.9,53,29.88,10.0,South,15.0,24.2,N/A,,Clear,190,2011-11-11 15:55:00
10:55 AM,50.0,32.0,50,29.85,10.0,SSW,17.3,24.2,N/A,,Clear,200,2011-11-11 16:55:00
11:55 AM,52.0,33.1,49,29.83,10.0,SSW,12.7,19.6,N/A,,Clear,210,2011-11-11 17:55:00
12:55 PM,55.9,34.0,44,29.81,10.0,SW,11.5,21.9,N/A,,Clear,230,2011-11-11 18:55:00
1:55 PM,57.9,35.1,42,29.80,10.0,WSW,10.4,19.6,N/A,,Clear,250,2011-11-11 19:55:00
3:55 PM,57.9,35.1,42,29.80,10.0,SW,6.9,-,N/A,,Clear,230,2011-11-11 21:55:00
4:55 PM,54.0,35.1,49,29.80,10.0,SW,5.8,-,N/A,,Clear,220,2011-11-11 22:55:00
5:55 PM,52.0,35.1,53,29.81,10.0,SW,8.1,-,N/A,,Clear,220,2011-11-11 23:55:00
6:55 PM,51.1,35.1,54,29.82,10.0,SW,6.9,-,N/A,,Clear,220,2011-11-12 00:55:00
7:55 PM,50.0,35.1,57,29.81,10.0,SW,8.1,-,N/A,,Clear,220,2011-11-12 01:55:00
8:55 PM,48.9,36.0,61,29.81,10.0,SW,9.2,-,N/A,,Clear,220,2011-11-12 02:55:00
9:55 PM,46.9,36.0,66,29.82,10.0,SW,6.9,-,N/A,,Clear,220,2011-11-12 03:55:00
10:55 PM,46.0,35.1,66,29.81,10.0,SW,6.9,-,N/A,,Clear,220,2011-11-12 04:55:00
11:55 PM,45.0,35.1,68,29.81,10.0,SW,9.2,-,N/A,,Clear,220,2011-11-12 05:55:00